sensor_id;sensor_type;location;lat;lon;timestamp;pressure;altitude;pressure_sealevel;temperature;humidity
11985;BME280;6052;53.246;10.368;2023-05-02T00:00:27;101028.63;;;16.63;61.77
11985;BME280;6052;53.246;10.368;2023-05-02T00:02:59;101026.75;;;16.68;61.96
11985;BME280;6052;53.246;10.368;2023-05-02T00:05:29;101026.63;;;16.33;63.36
11985;BME280;6052;53.246;10.368;2023-05-02T00:07:59;101025.63;;;16.49;63.30
11985;BME280;6052;53.246;10.368;2023-05-02T00:10:28;101018.59;;;16.58;62.94
11985;BME280;6052;53.246;10.368;2023-05-02T00:12:57;101022.94;;;16.59;63.47
11985;BME280;6052;53.246;10.368;2023-05-02T00:15:27;101014.00;;;16.89;62.01
11985;BME280;6052;53.246;10.368;2023-05-02T00:17:59;101018.31;;;16.65;62.79
11985;BME280;6052;53.246;10.368;2023-05-02T00:20:28;101020.25;;;16.69;62.88
11985;BME280;6052;53.246;10.368;2023-05-02T00:22:58;101022.41;;;16.87;62.25
11985;BME280;6052;53.246;10.368;2023-05-02T00:25:28;101017.78;;;16.68;63.01
11985;BME280;6052;53.246;10.368;2023-05-02T00:27:57;101021.03;;;16.80;62.63
11985;BME280;6052;53.246;10.368;2023-05-02T00:30:26;101027.81;;;16.67;62.76
11985;BME280;6052;53.246;10.368;2023-05-02T00:32:58;101024.84;;;16.69;63.37
11985;BME280;6052;53.246;10.368;2023-05-02T00:35:28;101022.13;;;16.64;64.13
11985;BME280;6052;53.246;10.368;2023-05-02T00:37:58;101028.63;;;16.58;65.34
11985;BME280;6052;53.246;10.368;2023-05-02T00:40:29;101025.91;;;16.53;66.35
11985;BME280;6052;53.246;10.368;2023-05-02T00:42:58;101026.16;;;16.46;67.29
11985;BME280;6052;53.246;10.368;2023-05-02T00:45:28;101030.16;;;16.34;68.10
11985;BME280;6052;53.246;10.368;2023-05-02T00:48:04;101027.97;;;16.36;67.86
11985;BME280;6052;53.246;10.368;2023-05-02T00:50:36;101025.16;;;16.06;69.99
11985;BME280;6052;53.246;10.368;2023-05-02T00:53:06;101031.94;;;16.08;69.20
11985;BME280;6052;53.246;10.368;2023-05-02T00:55:35;101034.19;;;16.26;69.27
11985;BME280;6052;53.246;10.368;2023-05-02T00:58:08;101034.47;;;16.35;68.56
11985;BME280;6052;53.246;10.368;2023-05-02T01:00:48;101033.44;;;16.41;68.53
11985;BME280;6052;53.246;10.368;2023-05-02T01:03:35;101027.38;;;16.19;68.84
11985;BME280;6052;53.246;10.368;2023-05-02T01:06:18;101031.69;;;16.10;69.58
11985;BME280;6052;53.246;10.368;2023-05-02T01:08:59;101036.25;;;16.04;70.34
11985;BME280;6052;53.246;10.368;2023-05-02T01:11:36;101033.69;;;16.34;68.17
11985;BME280;6052;53.246;10.368;2023-05-02T01:14:10;101036.56;;;16.08;70.62
11985;BME280;6052;53.246;10.368;2023-05-02T01:16:42;101038.84;;;15.79;72.06
11985;BME280;6052;53.246;10.368;2023-05-02T01:19:22;101032.72;;;15.99;71.21
11985;BME280;6052;53.246;10.368;2023-05-02T01:21:54;101034.13;;;16.11;70.69
11985;BME280;6052;53.246;10.368;2023-05-02T01:24:28;101038.31;;;15.77;73.32
11985;BME280;6052;53.246;10.368;2023-05-02T01:27:09;101050.28;;;15.91;72.02
11985;BME280;6052;53.246;10.368;2023-05-02T01:29:43;101045.91;;;15.80;72.95
11985;BME280;6052;53.246;10.368;2023-05-02T01:32:15;101048.38;;;15.92;72.47
11985;BME280;6052;53.246;10.368;2023-05-02T01:34:45;101051.63;;;15.89;73.73
11985;BME280;6052;53.246;10.368;2023-05-02T01:37:17;101051.75;;;15.62;76.06
11985;BME280;6052;53.246;10.368;2023-05-02T01:39:49;101052.88;;;15.66;75.11
11985;BME280;6052;53.246;10.368;2023-05-02T01:42:20;101050.03;;;15.93;73.55
11985;BME280;6052;53.246;10.368;2023-05-02T01:44:54;101051.03;;;15.82;74.72
11985;BME280;6052;53.246;10.368;2023-05-02T01:47:25;101050.00;;;15.88;75.15
11985;BME280;6052;53.246;10.368;2023-05-02T01:49:56;101060.06;;;15.97;73.63
11985;BME280;6052;53.246;10.368;2023-05-02T01:52:27;101056.28;;;15.98;73.03
11985;BME280;6052;53.246;10.368;2023-05-02T01:54:59;101058.75;;;16.05;73.02
11985;BME280;6052;53.246;10.368;2023-05-02T01:57:30;101056.88;;;16.10;72.42
11985;BME280;6052;53.246;10.368;2023-05-02T02:00:04;101065.56;;;16.12;72.62
11985;BME280;6052;53.246;10.368;2023-05-02T02:02:34;101062.44;;;15.84;75.67
11985;BME280;6052;53.246;10.368;2023-05-02T02:05:06;101067.94;;;15.99;74.18
11985;BME280;6052;53.246;10.368;2023-05-02T02:07:36;101063.78;;;15.40;78.16
11985;BME280;6052;53.246;10.368;2023-05-02T02:10:06;101055.53;;;15.61;77.12
11985;BME280;6052;53.246;10.368;2023-05-02T02:12:39;101062.16;;;15.80;75.72
11985;BME280;6052;53.246;10.368;2023-05-02T02:15:18;101062.19;;;15.85;75.47
11985;BME280;6052;53.246;10.368;2023-05-02T02:17:56;101064.88;;;15.85;75.73
11985;BME280;6052;53.246;10.368;2023-05-02T02:20:28;101064.03;;;15.80;76.12
11985;BME280;6052;53.246;10.368;2023-05-02T02:22:59;101058.34;;;15.76;76.05
11985;BME280;6052;53.246;10.368;2023-05-02T02:25:33;101064.03;;;15.80;75.71
11985;BME280;6052;53.246;10.368;2023-05-02T02:28:03;101062.75;;;15.92;75.42
11985;BME280;6052;53.246;10.368;2023-05-02T02:30:35;101066.78;;;15.90;75.48
11985;BME280;6052;53.246;10.368;2023-05-02T02:33:04;101075.44;;;15.87;75.99
11985;BME280;6052;53.246;10.368;2023-05-02T02:35:37;101069.25;;;15.91;75.17
11985;BME280;6052;53.246;10.368;2023-05-02T02:38:13;101079.19;;;15.81;76.83
11985;BME280;6052;53.246;10.368;2023-05-02T02:40:50;101071.88;;;15.76;76.18
11985;BME280;6052;53.246;10.368;2023-05-02T02:43:27;101071.31;;;15.79;76.50
11985;BME280;6052;53.246;10.368;2023-05-02T02:46:13;101074.63;;;15.86;75.79
11985;BME280;6052;53.246;10.368;2023-05-02T02:48:51;101072.09;;;15.70;77.90
11985;BME280;6052;53.246;10.368;2023-05-02T02:51:26;101081.31;;;15.74;78.20
11985;BME280;6052;53.246;10.368;2023-05-02T02:54:04;101088.06;;;15.71;78.33
11985;BME280;6052;53.246;10.368;2023-05-02T02:56:57;101092.75;;;15.86;76.15
11985;BME280;6052;53.246;10.368;2023-05-02T02:59:32;101095.38;;;15.71;76.87
11985;BME280;6052;53.246;10.368;2023-05-02T03:02:06;101101.88;;;15.70;78.51
11985;BME280;6052;53.246;10.368;2023-05-02T03:04:38;101096.41;;;15.65;78.56
11985;BME280;6052;53.246;10.368;2023-05-02T03:07:09;101101.41;;;15.83;77.29
11985;BME280;6052;53.246;10.368;2023-05-02T03:09:42;101101.09;;;15.79;77.15
11985;BME280;6052;53.246;10.368;2023-05-02T03:12:11;101112.63;;;15.60;79.45
11985;BME280;6052;53.246;10.368;2023-05-02T03:14:41;101110.44;;;15.57;80.45
11985;BME280;6052;53.246;10.368;2023-05-02T03:17:13;101129.44;;;15.67;82.90
11985;BME280;6052;53.246;10.368;2023-05-02T03:19:42;101119.69;;;15.66;81.41
11985;BME280;6052;53.246;10.368;2023-05-02T03:22:12;101117.06;;;15.76;79.99
11985;BME280;6052;53.246;10.368;2023-05-02T03:24:42;101127.88;;;15.76;80.56
11985;BME280;6052;53.246;10.368;2023-05-02T03:27:11;101128.38;;;15.68;80.91
11985;BME280;6052;53.246;10.368;2023-05-02T03:29:41;101134.81;;;15.98;78.13
11985;BME280;6052;53.246;10.368;2023-05-02T03:32:13;101136.84;;;15.76;81.88
11985;BME280;6052;53.246;10.368;2023-05-02T03:34:42;101143.59;;;15.74;82.18
11985;BME280;6052;53.246;10.368;2023-05-02T03:37:12;101135.66;;;15.62;83.89
11985;BME280;6052;53.246;10.368;2023-05-02T03:39:41;101143.97;;;15.56;83.97
11985;BME280;6052;53.246;10.368;2023-05-02T03:42:10;101145.19;;;15.70;83.59
11985;BME280;6052;53.246;10.368;2023-05-02T03:44:40;101147.44;;;15.83;82.02
11985;BME280;6052;53.246;10.368;2023-05-02T03:47:09;101148.06;;;15.32;87.38
11985;BME280;6052;53.246;10.368;2023-05-02T03:49:41;101155.19;;;15.69;84.14
11985;BME280;6052;53.246;10.368;2023-05-02T03:52:11;101152.44;;;15.11;89.30
11985;BME280;6052;53.246;10.368;2023-05-02T03:54:40;101173.50;;;15.04;89.35
11985;BME280;6052;53.246;10.368;2023-05-02T03:57:09;101174.97;;;14.47;90.91
11985;BME280;6052;53.246;10.368;2023-05-02T03:59:39;101183.25;;;14.41;90.60
11985;BME280;6052;53.246;10.368;2023-05-02T04:02:11;101183.78;;;14.21;92.09
11985;BME280;6052;53.246;10.368;2023-05-02T04:04:43;101198.91;;;14.06;89.47
11985;BME280;6052;53.246;10.368;2023-05-02T04:07:13;101212.16;;;14.07;91.41
11985;BME280;6052;53.246;10.368;2023-05-02T04:09:45;101216.41;;;13.87;91.93
11985;BME280;6052;53.246;10.368;2023-05-02T04:12:16;101222.81;;;14.14;89.43
11985;BME280;6052;53.246;10.368;2023-05-02T04:14:45;101229.75;;;14.10;86.93
11985;BME280;6052;53.246;10.368;2023-05-02T04:17:15;101240.72;;;14.03;87.29
11985;BME280;6052;53.246;10.368;2023-05-02T04:19:47;101244.00;;;14.05;85.84
11985;BME280;6052;53.246;10.368;2023-05-02T04:22:17;101253.25;;;13.76;87.24
11985;BME280;6052;53.246;10.368;2023-05-02T04:24:46;101262.31;;;13.87;85.40
11985;BME280;6052;53.246;10.368;2023-05-02T04:27:15;101270.16;;;14.05;84.16
11985;BME280;6052;53.246;10.368;2023-05-02T04:29:47;101269.06;;;13.56;85.52
11985;BME280;6052;53.246;10.368;2023-05-02T04:32:16;101273.34;;;13.69;86.28
11985;BME280;6052;53.246;10.368;2023-05-02T04:34:48;101277.47;;;13.88;85.51
11985;BME280;6052;53.246;10.368;2023-05-02T04:37:18;101286.44;;;13.93;85.40
11985;BME280;6052;53.246;10.368;2023-05-02T04:39:50;101278.06;;;14.23;82.78
11985;BME280;6052;53.246;10.368;2023-05-02T04:42:19;101294.38;;;14.00;83.16
11985;BME280;6052;53.246;10.368;2023-05-02T04:44:51;101295.53;;;14.04;82.87
11985;BME280;6052;53.246;10.368;2023-05-02T04:47:23;101301.88;;;13.65;84.66
11985;BME280;6052;53.246;10.368;2023-05-02T04:49:55;101307.94;;;13.44;84.01
11985;BME280;6052;53.246;10.368;2023-05-02T04:52:25;101317.47;;;13.35;84.91
11985;BME280;6052;53.246;10.368;2023-05-02T04:54:55;101332.75;;;13.57;83.04
11985;BME280;6052;53.246;10.368;2023-05-02T04:57:24;101341.25;;;13.66;82.75
11985;BME280;6052;53.246;10.368;2023-05-02T04:59:53;101349.19;;;13.44;82.12
11985;BME280;6052;53.246;10.368;2023-05-02T05:02:23;101349.06;;;13.00;83.25
11985;BME280;6052;53.246;10.368;2023-05-02T05:04:56;101359.81;;;13.23;82.52
11985;BME280;6052;53.246;10.368;2023-05-02T05:07:25;101365.25;;;13.79;80.00
11985;BME280;6052;53.246;10.368;2023-05-02T05:10:00;101369.44;;;13.58;80.32
11985;BME280;6052;53.246;10.368;2023-05-02T05:12:29;101377.78;;;13.85;78.39
11985;BME280;6052;53.246;10.368;2023-05-02T05:14:59;101373.69;;;14.10;76.49
11985;BME280;6052;53.246;10.368;2023-05-02T05:17:29;101383.59;;;13.93;76.61
11985;BME280;6052;53.246;10.368;2023-05-02T05:20:01;101389.25;;;13.92;76.92
11985;BME280;6052;53.246;10.368;2023-05-02T05:22:37;101382.78;;;13.65;76.70
11985;BME280;6052;53.246;10.368;2023-05-02T05:25:08;101387.66;;;13.51;76.89
11985;BME280;6052;53.246;10.368;2023-05-02T05:27:37;101393.09;;;13.17;78.14
11985;BME280;6052;53.246;10.368;2023-05-02T05:30:07;101393.09;;;13.68;76.50
11985;BME280;6052;53.246;10.368;2023-05-02T05:32:37;101399.09;;;13.70;76.53
11985;BME280;6052;53.246;10.368;2023-05-02T05:35:10;101393.34;;;13.04;76.06
11985;BME280;6052;53.246;10.368;2023-05-02T05:37:39;101399.06;;;13.30;76.59
11985;BME280;6052;53.246;10.368;2023-05-02T05:40:09;101404.94;;;13.67;74.47
11985;BME280;6052;53.246;10.368;2023-05-02T05:42:38;101413.06;;;13.55;75.11
11985;BME280;6052;53.246;10.368;2023-05-02T05:45:09;101411.84;;;13.35;73.83
11985;BME280;6052;53.246;10.368;2023-05-02T05:47:38;101418.78;;;13.19;75.33
11985;BME280;6052;53.246;10.368;2023-05-02T05:50:10;101420.75;;;13.24;75.42
11985;BME280;6052;53.246;10.368;2023-05-02T05:52:40;101425.44;;;12.94;75.26
11985;BME280;6052;53.246;10.368;2023-05-02T05:55:09;101417.25;;;13.00;74.80
11985;BME280;6052;53.246;10.368;2023-05-02T05:57:39;101427.81;;;13.13;73.70
11985;BME280;6052;53.246;10.368;2023-05-02T06:00:10;101435.41;;;13.16;72.84
11985;BME280;6052;53.246;10.368;2023-05-02T06:02:39;101442.53;;;13.34;72.96
11985;BME280;6052;53.246;10.368;2023-05-02T06:05:12;101452.34;;;13.63;72.01
11985;BME280;6052;53.246;10.368;2023-05-02T06:07:41;101453.94;;;13.36;72.21
11985;BME280;6052;53.246;10.368;2023-05-02T06:10:11;101459.88;;;12.92;71.81
11985;BME280;6052;53.246;10.368;2023-05-02T06:12:40;101463.66;;;13.14;71.54
11985;BME280;6052;53.246;10.368;2023-05-02T06:15:11;101469.78;;;13.21;71.54
11985;BME280;6052;53.246;10.368;2023-05-02T06:17:40;101467.09;;;12.57;72.27
11985;BME280;6052;53.246;10.368;2023-05-02T06:20:12;101472.28;;;12.81;71.74
11985;BME280;6052;53.246;10.368;2023-05-02T06:22:44;101485.53;;;12.83;71.81
11985;BME280;6052;53.246;10.368;2023-05-02T06:25:13;101482.34;;;12.63;72.55
11985;BME280;6052;53.246;10.368;2023-05-02T06:27:43;101488.47;;;12.40;72.84
11985;BME280;6052;53.246;10.368;2023-05-02T06:30:12;101493.06;;;13.04;71.77
11985;BME280;6052;53.246;10.368;2023-05-02T06:32:41;101502.22;;;13.14;71.17
11985;BME280;6052;53.246;10.368;2023-05-02T06:35:14;101504.59;;;13.22;70.93
11985;BME280;6052;53.246;10.368;2023-05-02T06:37:44;101512.66;;;13.11;71.45
11985;BME280;6052;53.246;10.368;2023-05-02T06:40:13;101506.13;;;13.41;69.76
11985;BME280;6052;53.246;10.368;2023-05-02T06:42:43;101522.84;;;13.20;70.47
11985;BME280;6052;53.246;10.368;2023-05-02T06:45:12;101530.59;;;13.05;70.58
11985;BME280;6052;53.246;10.368;2023-05-02T06:47:41;101537.06;;;13.16;70.21
11985;BME280;6052;53.246;10.368;2023-05-02T06:50:14;101535.41;;;13.03;70.33
11985;BME280;6052;53.246;10.368;2023-05-02T06:52:44;101544.44;;;13.20;69.58
11985;BME280;6052;53.246;10.368;2023-05-02T06:55:13;101546.19;;;13.15;68.85
11985;BME280;6052;53.246;10.368;2023-05-02T06:57:43;101553.25;;;12.45;68.83
11985;BME280;6052;53.246;10.368;2023-05-02T07:00:14;101561.97;;;12.41;69.85
11985;BME280;6052;53.246;10.368;2023-05-02T07:02:45;101569.31;;;12.93;69.20
11985;BME280;6052;53.246;10.368;2023-05-02T07:05:17;101577.84;;;12.90;68.43
11985;BME280;6052;53.246;10.368;2023-05-02T07:07:46;101576.69;;;12.86;68.42
11985;BME280;6052;53.246;10.368;2023-05-02T07:10:16;101577.31;;;12.70;67.95
11985;BME280;6052;53.246;10.368;2023-05-02T07:12:45;101585.25;;;12.65;68.29
11985;BME280;6052;53.246;10.368;2023-05-02T07:15:15;101591.56;;;12.88;67.89
11985;BME280;6052;53.246;10.368;2023-05-02T07:17:44;101597.06;;;12.82;67.36
11985;BME280;6052;53.246;10.368;2023-05-02T07:20:17;101597.78;;;12.89;66.76
11985;BME280;6052;53.246;10.368;2023-05-02T07:22:47;101600.75;;;12.69;67.52
11985;BME280;6052;53.246;10.368;2023-05-02T07:25:16;101611.63;;;12.63;66.97
11985;BME280;6052;53.246;10.368;2023-05-02T07:27:46;101602.47;;;12.16;67.12
11985;BME280;6052;53.246;10.368;2023-05-02T07:30:16;101607.72;;;12.29;66.66
11985;BME280;6052;53.246;10.368;2023-05-02T07:32:45;101604.97;;;12.47;66.09
11985;BME280;6052;53.246;10.368;2023-05-02T07:35:17;101601.34;;;12.42;65.93
11985;BME280;6052;53.246;10.368;2023-05-02T07:37:47;101611.47;;;12.58;66.01
11985;BME280;6052;53.246;10.368;2023-05-02T07:40:16;101615.44;;;12.55;65.97
11985;BME280;6052;53.246;10.368;2023-05-02T07:42:46;101614.44;;;12.02;66.17
11985;BME280;6052;53.246;10.368;2023-05-02T07:45:16;101627.81;;;12.09;66.35
11985;BME280;6052;53.246;10.368;2023-05-02T07:47:46;101626.25;;;12.37;65.98
11985;BME280;6052;53.246;10.368;2023-05-02T07:50:18;101626.53;;;12.47;65.53
11985;BME280;6052;53.246;10.368;2023-05-02T07:52:48;101632.53;;;12.31;65.84
11985;BME280;6052;53.246;10.368;2023-05-02T07:55:17;101639.13;;;12.35;66.17
11985;BME280;6052;53.246;10.368;2023-05-02T07:57:47;101639.19;;;11.68;66.88
11985;BME280;6052;53.246;10.368;2023-05-02T08:00:17;101643.56;;;11.87;66.05
11985;BME280;6052;53.246;10.368;2023-05-02T08:02:46;101644.13;;;12.14;65.73
11985;BME280;6052;53.246;10.368;2023-05-02T08:05:18;101647.69;;;12.26;65.27
11985;BME280;6052;53.246;10.368;2023-05-02T08:07:48;101660.19;;;12.02;65.03
11985;BME280;6052;53.246;10.368;2023-05-02T08:10:17;101659.44;;;12.31;64.71
11985;BME280;6052;53.246;10.368;2023-05-02T08:12:48;101657.28;;;12.04;64.50
11985;BME280;6052;53.246;10.368;2023-05-02T08:15:18;101662.22;;;12.25;65.10
11985;BME280;6052;53.246;10.368;2023-05-02T08:17:47;101669.81;;;12.46;64.16
11985;BME280;6052;53.246;10.368;2023-05-02T08:20:19;101667.31;;;12.33;64.32
11985;BME280;6052;53.246;10.368;2023-05-02T08:22:49;101671.63;;;11.73;65.79
11985;BME280;6052;53.246;10.368;2023-05-02T08:25:18;101676.28;;;12.09;64.55
11985;BME280;6052;53.246;10.368;2023-05-02T08:27:47;101670.88;;;12.09;64.18
11985;BME280;6052;53.246;10.368;2023-05-02T08:30:17;101669.84;;;12.10;63.32
11985;BME280;6052;53.246;10.368;2023-05-02T08:32:46;101677.72;;;11.87;63.96
11985;BME280;6052;53.246;10.368;2023-05-02T08:35:19;101685.69;;;12.18;62.92
11985;BME280;6052;53.246;10.368;2023-05-02T08:37:48;101674.53;;;11.96;62.26
11985;BME280;6052;53.246;10.368;2023-05-02T08:40:19;101690.69;;;12.14;62.13
11985;BME280;6052;53.246;10.368;2023-05-02T08:43:06;101692.69;;;12.01;62.67
11985;BME280;6052;53.246;10.368;2023-05-02T08:45:39;101688.78;;;12.39;61.46
11985;BME280;6052;53.246;10.368;2023-05-02T08:48:09;101694.94;;;12.04;61.27
11985;BME280;6052;53.246;10.368;2023-05-02T08:50:42;101706.44;;;12.35;61.91
11985;BME280;6052;53.246;10.368;2023-05-02T08:53:14;101706.91;;;12.26;61.97
11985;BME280;6052;53.246;10.368;2023-05-02T08:55:43;101712.16;;;12.21;62.46
11985;BME280;6052;53.246;10.368;2023-05-02T08:58:13;101716.84;;;12.07;62.53
11985;BME280;6052;53.246;10.368;2023-05-02T09:00:45;101718.00;;;12.36;61.45
11985;BME280;6052;53.246;10.368;2023-05-02T09:03:22;101722.44;;;12.30;61.71
11985;BME280;6052;53.246;10.368;2023-05-02T09:06:05;101731.72;;;12.10;62.09
11985;BME280;6052;53.246;10.368;2023-05-02T09:08:35;101734.09;;;12.42;61.97
11985;BME280;6052;53.246;10.368;2023-05-02T09:11:07;101748.66;;;12.35;61.64
11985;BME280;6052;53.246;10.368;2023-05-02T09:13:38;101752.38;;;12.16;61.49
11985;BME280;6052;53.246;10.368;2023-05-02T09:16:09;101749.19;;;12.25;61.29
11985;BME280;6052;53.246;10.368;2023-05-02T09:18:40;101748.19;;;12.20;61.05
11985;BME280;6052;53.246;10.368;2023-05-02T09:21:15;101760.72;;;12.32;60.15
11985;BME280;6052;53.246;10.368;2023-05-02T09:23:47;101752.69;;;12.26;60.45
11985;BME280;6052;53.246;10.368;2023-05-02T09:26:18;101759.75;;;12.45;60.65
11985;BME280;6052;53.246;10.368;2023-05-02T09:28:49;101762.22;;;12.04;60.80
11985;BME280;6052;53.246;10.368;2023-05-02T09:31:21;101758.47;;;12.47;60.33
11985;BME280;6052;53.246;10.368;2023-05-02T09:33:54;101754.56;;;12.25;60.54
11985;BME280;6052;53.246;10.368;2023-05-02T09:36:38;101749.34;;;12.30;60.75
11985;BME280;6052;53.246;10.368;2023-05-02T09:39:09;101765.31;;;12.68;60.69
11985;BME280;6052;53.246;10.368;2023-05-02T09:41:39;101764.13;;;12.82;61.02
11985;BME280;6052;53.246;10.368;2023-05-02T09:44:11;101776.16;;;12.79;60.63
11985;BME280;6052;53.246;10.368;2023-05-02T09:46:42;101765.88;;;12.70;59.27
11985;BME280;6052;53.246;10.368;2023-05-02T09:49:12;101763.31;;;12.99;59.42
11985;BME280;6052;53.246;10.368;2023-05-02T09:51:47;101769.78;;;12.92;60.93
11985;BME280;6052;53.246;10.368;2023-05-02T09:54:33;101772.25;;;12.75;60.22
11985;BME280;6052;53.246;10.368;2023-05-02T09:57:03;101771.88;;;12.90;59.70
11985;BME280;6052;53.246;10.368;2023-05-02T09:59:33;101784.41;;;12.84;60.02
11985;BME280;6052;53.246;10.368;2023-05-02T10:02:03;101783.88;;;12.76;59.91
11985;BME280;6052;53.246;10.368;2023-05-02T10:04:35;101788.38;;;13.00;59.95
11985;BME280;6052;53.246;10.368;2023-05-02T10:07:08;101783.50;;;13.08;59.24
11985;BME280;6052;53.246;10.368;2023-05-02T10:09:42;101773.06;;;12.94;59.18
11985;BME280;6052;53.246;10.368;2023-05-02T10:12:14;101778.78;;;13.22;58.77
11985;BME280;6052;53.246;10.368;2023-05-02T10:14:48;101784.03;;;13.17;59.17
11985;BME280;6052;53.246;10.368;2023-05-02T10:17:21;101790.31;;;13.11;59.22
11985;BME280;6052;53.246;10.368;2023-05-02T10:19:56;101781.03;;;13.25;59.14
11985;BME280;6052;53.246;10.368;2023-05-02T10:22:32;101776.88;;;13.52;58.54
11985;BME280;6052;53.246;10.368;2023-05-02T10:25:03;101784.09;;;13.69;58.79
11985;BME280;6052;53.246;10.368;2023-05-02T10:27:32;101783.84;;;13.59;58.67
11985;BME280;6052;53.246;10.368;2023-05-02T10:30:04;101781.22;;;13.82;59.08
11985;BME280;6052;53.246;10.368;2023-05-02T10:32:35;101785.50;;;13.72;58.87
11985;BME280;6052;53.246;10.368;2023-05-02T10:35:06;101785.63;;;13.77;58.46
11985;BME280;6052;53.246;10.368;2023-05-02T10:37:39;101799.16;;;13.88;59.19
11985;BME280;6052;53.246;10.368;2023-05-02T10:40:10;101799.22;;;14.11;59.16
11985;BME280;6052;53.246;10.368;2023-05-02T10:42:42;101792.84;;;13.94;58.70
11985;BME280;6052;53.246;10.368;2023-05-02T10:45:29;101795.53;;;13.83;57.99
11985;BME280;6052;53.246;10.368;2023-05-02T10:48:13;101792.84;;;13.94;57.72
11985;BME280;6052;53.246;10.368;2023-05-02T10:50:43;101799.22;;;14.11;57.38
11985;BME280;6052;53.246;10.368;2023-05-02T10:53:30;101812.94;;;14.10;58.67
11985;BME280;6052;53.246;10.368;2023-05-02T10:56:10;101805.66;;;13.99;58.97
11985;BME280;6052;53.246;10.368;2023-05-02T10:58:41;101793.59;;;13.72;58.47
11985;BME280;6052;53.246;10.368;2023-05-02T11:01:35;101817.34;;;13.81;57.90
11985;BME280;6052;53.246;10.368;2023-05-02T11:04:06;101812.69;;;14.00;57.25
11985;BME280;6052;53.246;10.368;2023-05-02T11:09:43;101807.63;;;13.92;57.48
11985;BME280;6052;53.246;10.368;2023-05-02T11:12:43;101805.69;;;14.10;58.14
11985;BME280;6052;53.246;10.368;2023-05-02T11:15:14;101797.63;;;14.22;57.92
11985;BME280;6052;53.246;10.368;2023-05-02T11:18:04;101801.25;;;14.27;58.28
11985;BME280;6052;53.246;10.368;2023-05-02T11:20:35;101804.44;;;14.24;58.30
11985;BME280;6052;53.246;10.368;2023-05-02T11:23:23;101812.38;;;14.19;59.07
11985;BME280;6052;53.246;10.368;2023-05-02T11:25:58;101818.78;;;14.07;57.83
11985;BME280;6052;53.246;10.368;2023-05-02T11:28:42;101820.06;;;14.34;57.74
11985;BME280;6052;53.246;10.368;2023-05-02T11:34:13;101824.16;;;14.25;57.74
11985;BME280;6052;53.246;10.368;2023-05-02T11:36:43;101827.72;;;13.96;57.77
11985;BME280;6052;53.246;10.368;2023-05-02T11:39:18;101835.06;;;14.30;58.44
11985;BME280;6052;53.246;10.368;2023-05-02T11:41:50;101823.81;;;14.33;57.82
11985;BME280;6052;53.246;10.368;2023-05-02T11:44:20;101835.09;;;14.53;58.85
11985;BME280;6052;53.246;10.368;2023-05-02T11:46:49;101830.75;;;14.52;57.64
11985;BME280;6052;53.246;10.368;2023-05-02T11:49:19;101836.84;;;14.47;58.21
11985;BME280;6052;53.246;10.368;2023-05-02T11:51:48;101834.72;;;14.26;57.63
11985;BME280;6052;53.246;10.368;2023-05-02T11:54:18;101842.25;;;14.36;57.28
11985;BME280;6052;53.246;10.368;2023-05-02T11:56:50;101843.84;;;14.14;57.29
11985;BME280;6052;53.246;10.368;2023-05-02T11:59:20;101844.88;;;14.01;57.84
11985;BME280;6052;53.246;10.368;2023-05-02T12:01:49;101850.59;;;14.23;57.42
11985;BME280;6052;53.246;10.368;2023-05-02T12:04:19;101863.28;;;14.04;57.85
11985;BME280;6052;53.246;10.368;2023-05-02T12:06:55;101851.56;;;13.99;57.49
11985;BME280;6052;53.246;10.368;2023-05-02T12:09:25;101860.16;;;14.19;57.24
11985;BME280;6052;53.246;10.368;2023-05-02T12:11:57;101853.50;;;14.21;57.02
11985;BME280;6052;53.246;10.368;2023-05-02T12:14:28;101859.13;;;14.20;56.96
11985;BME280;6052;53.246;10.368;2023-05-02T12:16:59;101858.06;;;14.21;56.96
11985;BME280;6052;53.246;10.368;2023-05-02T12:19:29;101860.56;;;14.22;57.18
11985;BME280;6052;53.246;10.368;2023-05-02T12:21:59;101862.56;;;14.27;57.44
11985;BME280;6052;53.246;10.368;2023-05-02T12:24:28;101863.69;;;14.19;58.14
11985;BME280;6052;53.246;10.368;2023-05-02T12:27:14;101871.13;;;14.24;57.63
11985;BME280;6052;53.246;10.368;2023-05-02T12:29:44;101864.88;;;14.23;57.65
11985;BME280;6052;53.246;10.368;2023-05-02T12:32:25;101873.25;;;14.33;57.91
11985;BME280;6052;53.246;10.368;2023-05-02T12:34:55;101876.13;;;14.09;58.52
11985;BME280;6052;53.246;10.368;2023-05-02T12:37:26;101878.47;;;14.17;58.74
11985;BME280;6052;53.246;10.368;2023-05-02T12:39:56;101877.75;;;14.10;59.05
11985;BME280;6052;53.246;10.368;2023-05-02T12:42:28;101880.56;;;14.15;58.53
11985;BME280;6052;53.246;10.368;2023-05-02T12:44:59;101874.22;;;14.09;57.88
11985;BME280;6052;53.246;10.368;2023-05-02T12:47:43;101886.91;;;14.09;58.79
11985;BME280;6052;53.246;10.368;2023-05-02T12:50:12;101894.78;;;14.10;58.85
11985;BME280;6052;53.246;10.368;2023-05-02T12:52:48;101901.16;;;13.86;59.76
11985;BME280;6052;53.246;10.368;2023-05-02T12:55:24;101899.81;;;13.77;60.55
11985;BME280;6052;53.246;10.368;2023-05-02T12:58:02;101913.31;;;13.77;61.35
11985;BME280;6052;53.246;10.368;2023-05-02T13:00:35;101909.22;;;13.57;61.12
11985;BME280;6052;53.246;10.368;2023-05-02T13:03:04;101913.53;;;13.46;61.78
11985;BME280;6052;53.246;10.368;2023-05-02T13:05:37;101912.97;;;13.56;61.21
11985;BME280;6052;53.246;10.368;2023-05-02T13:08:07;101925.84;;;13.72;61.17
11985;BME280;6052;53.246;10.368;2023-05-02T13:10:36;101914.03;;;13.84;60.84
11985;BME280;6052;53.246;10.368;2023-05-02T13:13:08;101923.28;;;13.77;60.91
11985;BME280;6052;53.246;10.368;2023-05-02T13:15:37;101916.31;;;13.69;60.13
11985;BME280;6052;53.246;10.368;2023-05-02T13:18:07;101924.41;;;13.69;59.87
11985;BME280;6052;53.246;10.368;2023-05-02T13:20:36;101927.03;;;13.58;59.99